createdAt,value
2023-03-04T00:00:59.723Z,18.90
2023-03-04T00:03:27.961Z,18.90
2023-03-04T00:05:56.120Z,18.90
2023-03-04T00:08:24.240Z,18.90
2023-03-04T00:10:52.396Z,18.90
2023-03-04T00:13:21.990Z,18.90
2023-03-04T00:15:50.197Z,18.90
2023-03-04T00:18:21.111Z,18.90
2023-03-04T00:20:49.985Z,18.80
2023-03-04T00:23:18.395Z,18.80
2023-03-04T00:25:46.543Z,18.80
2023-03-04T00:28:14.658Z,18.80
2023-03-04T00:30:42.765Z,18.70
2023-03-04T00:33:10.893Z,18.80
2023-03-04T00:35:40.481Z,18.80
2023-03-04T00:38:08.881Z,18.70
2023-03-04T00:40:37.050Z,18.70
2023-03-04T00:43:05.265Z,18.70
2023-03-04T00:45:33.480Z,18.70
2023-03-04T00:48:01.704Z,18.70
2023-03-04T00:50:29.884Z,18.60
2023-03-04T00:52:59.515Z,18.60
2023-03-04T00:55:27.729Z,18.60
2023-03-04T00:57:56.126Z,18.60
2023-03-04T01:00:24.476Z,18.60
2023-03-04T01:02:52.719Z,18.60
2023-03-04T01:05:21.075Z,18.60
2023-03-04T01:07:49.364Z,18.60
2023-03-04T01:10:19.410Z,18.60
2023-03-04T01:12:47.430Z,18.70
2023-03-04T01:15:16.170Z,18.60
2023-03-04T01:17:44.525Z,18.60
2023-03-04T01:20:13.611Z,18.60
2023-03-04T01:22:41.917Z,18.60
2023-03-04T01:25:10.965Z,18.50
2023-03-04T01:27:40.567Z,18.50
2023-03-04T01:30:09.973Z,18.50
2023-03-04T01:32:38.199Z,18.50
2023-03-04T01:35:07.252Z,18.50
2023-03-04T01:37:35.771Z,18.50
2023-03-04T01:40:05.537Z,18.50
2023-03-04T01:42:36.592Z,18.50
2023-03-04T01:45:07.982Z,18.50
2023-03-04T01:47:36.743Z,18.40
2023-03-04T01:50:06.807Z,18.50
2023-03-04T01:52:34.812Z,18.50
2023-03-04T01:55:03.353Z,18.40
2023-03-04T01:57:37.393Z,18.40
2023-03-04T02:00:26.863Z,18.40
2023-03-04T02:02:58.614Z,18.50
2023-03-04T02:05:27.170Z,18.40
2023-03-04T02:07:57.434Z,18.40
2023-03-04T02:10:26.410Z,18.40
2023-03-04T02:12:55.232Z,18.40
2023-03-04T02:15:25.018Z,18.40
2023-03-04T02:17:53.299Z,18.30
2023-03-04T02:20:33.826Z,18.40
2023-03-04T02:23:10.435Z,18.30
2023-03-04T02:25:44.343Z,18.30
2023-03-04T02:28:14.039Z,18.30
2023-03-04T02:30:42.332Z,18.30
2023-03-04T02:33:18.063Z,18.30
2023-03-04T02:35:47.379Z,18.30
2023-03-04T02:38:15.678Z,18.30
2023-03-04T02:40:47.889Z,18.30
2023-03-04T02:43:17.631Z,18.30
2023-03-04T02:45:47.700Z,18.30
2023-03-04T02:48:18.956Z,18.30
2023-03-04T02:50:49.165Z,18.30
2023-03-04T02:53:18.107Z,18.30
2023-03-04T02:55:46.494Z,18.30
2023-03-04T02:58:15.742Z,18.20
2023-03-04T03:00:45.270Z,18.20
2023-03-04T03:03:13.716Z,18.20
2023-03-04T03:05:42.198Z,18.20
2023-03-04T03:08:10.358Z,18.20
2023-03-04T03:10:38.494Z,18.20
2023-03-04T03:13:06.680Z,18.20
2023-03-04T03:15:34.921Z,18.20
2023-03-04T03:18:04.451Z,18.10
2023-03-04T03:20:32.603Z,18.10
2023-03-04T03:23:00.775Z,18.10
2023-03-04T03:25:28.951Z,18.10
2023-03-04T03:27:57.106Z,18.10
2023-03-04T03:30:25.292Z,18.10
2023-03-04T03:32:53.447Z,18.10
2023-03-04T03:35:23.173Z,18.10
2023-03-04T03:37:51.341Z,18.10
2023-03-04T03:40:19.787Z,18.10
2023-03-04T03:42:47.921Z,18.10
2023-03-04T03:45:16.290Z,18.10
2023-03-04T03:47:44.412Z,18.10
2023-03-04T03:50:13.233Z,18.10
2023-03-04T03:52:42.760Z,18.10
2023-03-04T03:55:11.344Z,18.10
2023-03-04T03:57:39.507Z,18.00
2023-03-04T04:00:09.315Z,18.00
2023-03-04T04:02:37.480Z,18.00
2023-03-04T04:05:06.598Z,18.00
2023-03-04T04:07:34.835Z,18.00
2023-03-04T04:10:04.631Z,18.00
2023-03-04T04:12:33.054Z,18.00
2023-03-04T04:15:01.243Z,18.00
2023-03-04T04:17:29.452Z,18.00
2023-03-04T04:19:57.609Z,18.00
2023-03-04T04:22:25.721Z,17.90
2023-03-04T04:24:53.871Z,18.00
2023-03-04T04:27:23.714Z,18.00
2023-03-04T04:29:51.857Z,18.00
2023-03-04T04:32:20.104Z,18.00
2023-03-04T04:34:48.316Z,17.90
2023-03-04T04:37:16.448Z,17.90
2023-03-04T04:39:44.648Z,17.90
2023-03-04T04:42:13.118Z,17.90
2023-03-04T04:44:42.676Z,17.90
2023-03-04T04:47:11.258Z,17.90
2023-03-04T04:49:39.433Z,17.90
2023-03-04T04:52:07.609Z,18.00
2023-03-04T04:54:35.775Z,18.20
2023-03-04T04:57:03.908Z,18.20
2023-03-04T04:59:32.073Z,18.30
2023-03-04T05:02:01.617Z,18.40
2023-03-04T05:04:29.910Z,18.40
2023-03-04T05:06:58.055Z,18.50
2023-03-04T05:09:26.171Z,18.50
2023-03-04T05:11:54.324Z,18.60
2023-03-04T05:14:22.455Z,18.60
2023-03-04T05:16:52.981Z,18.60
2023-03-04T05:19:22.861Z,18.70
2023-03-04T05:21:51.010Z,18.70
2023-03-04T05:24:19.224Z,18.70
2023-03-04T05:26:47.393Z,18.70
2023-03-04T05:29:15.534Z,18.80
2023-03-04T05:31:43.732Z,18.80
2023-03-04T05:34:11.904Z,18.80
2023-03-04T05:36:41.488Z,18.80
2023-03-04T05:39:09.646Z,18.90
2023-03-04T05:41:37.803Z,18.90
2023-03-04T05:44:06.393Z,18.90
2023-03-04T05:46:34.663Z,18.90
2023-03-04T05:49:02.806Z,18.90
2023-03-04T05:51:30.980Z,18.90
2023-03-04T05:54:00.455Z,18.90
2023-03-04T05:56:30.026Z,19.00
2023-03-04T05:58:59.155Z,19.00
2023-03-04T06:01:27.745Z,19.00
2023-03-04T06:03:56.287Z,19.00
2023-03-04T06:06:24.508Z,19.10
2023-03-04T06:08:52.623Z,19.10
2023-03-04T06:11:22.183Z,19.10
2023-03-04T06:13:50.353Z,19.10
2023-03-04T06:16:18.565Z,19.10
2023-03-04T06:18:46.772Z,19.10
2023-03-04T06:21:15.010Z,19.20
2023-03-04T06:23:44.387Z,19.20
2023-03-04T06:26:15.657Z,19.20
2023-03-04T06:28:46.050Z,19.20
2023-03-04T06:31:14.321Z,19.20
2023-03-04T06:33:42.489Z,19.20
2023-03-04T06:36:10.696Z,19.20
2023-03-04T06:38:38.832Z,19.20
2023-03-04T06:41:10.857Z,19.20
2023-03-04T06:43:39.657Z,19.20
2023-03-04T06:46:10.082Z,19.10
2023-03-04T06:48:38.469Z,19.00
2023-03-04T06:51:08.218Z,18.90
2023-03-04T06:53:37.294Z,19.10
2023-03-04T06:56:05.974Z,19.20
2023-03-04T06:58:34.199Z,19.30
2023-03-04T07:01:13.547Z,19.40
2023-03-04T07:03:42.198Z,19.40
2023-03-04T07:06:11.973Z,19.50
2023-03-04T07:08:40.834Z,19.60
2023-03-04T07:11:09.327Z,19.60
2023-03-04T07:13:38.514Z,19.70
2023-03-04T07:16:07.542Z,19.70
2023-03-04T07:18:37.823Z,19.80
2023-03-04T07:21:06.699Z,19.80
2023-03-04T07:23:35.577Z,19.90
2023-03-04T07:26:04.148Z,20.00
2023-03-04T07:28:32.446Z,20.00
2023-03-04T07:31:10.533Z,20.00
2023-03-04T07:33:40.177Z,20.00
2023-03-04T07:36:08.438Z,20.00
2023-03-04T07:38:36.673Z,20.10
2023-03-04T07:41:04.911Z,20.10
2023-03-04T07:43:33.182Z,20.20
2023-03-04T07:46:02.459Z,20.40
2023-03-04T07:48:30.930Z,20.60
2023-03-04T07:51:11.391Z,20.60
2023-03-04T07:53:42.654Z,20.40
2023-03-04T07:56:13.668Z,20.40
2023-03-04T07:58:41.977Z,20.50
2023-03-04T08:01:11.626Z,20.70
2023-03-04T08:03:40.013Z,20.80
2023-03-04T08:06:11.582Z,20.80
2023-03-04T08:08:40.033Z,20.80
2023-03-04T08:11:09.936Z,20.80
2023-03-04T08:13:38.578Z,20.70
2023-03-04T08:16:07.784Z,20.70
2023-03-04T08:18:36.060Z,20.70
2023-03-04T08:21:04.251Z,20.60
2023-03-04T08:23:33.804Z,20.70
2023-03-04T08:26:06.342Z,20.70
2023-03-04T08:28:34.536Z,20.70
2023-03-04T08:31:02.690Z,20.70
2023-03-04T08:33:30.943Z,20.70
2023-03-04T08:35:59.188Z,20.70
2023-03-04T08:38:27.486Z,20.80
2023-03-04T08:40:57.901Z,20.90
2023-03-04T08:43:27.239Z,20.90
2023-03-04T08:45:55.597Z,20.90
2023-03-04T08:48:24.794Z,20.90
2023-03-04T08:50:54.068Z,20.80
2023-03-04T08:53:22.684Z,20.70
2023-03-04T08:55:52.684Z,20.70
2023-03-04T08:58:22.014Z,20.80
2023-03-04T09:00:51.620Z,21.00
2023-03-04T09:03:20.575Z,21.10
2023-03-04T09:05:49.384Z,21.20
2023-03-04T09:08:17.959Z,21.40
2023-03-04T09:10:46.642Z,21.80
2023-03-04T09:13:16.274Z,22.00
2023-03-04T09:15:48.733Z,22.20
2023-03-04T09:18:17.800Z,22.10
2023-03-04T09:20:46.273Z,22.20
2023-03-04T09:23:14.988Z,22.10
2023-03-04T09:25:44.527Z,22.00
2023-03-04T09:28:13.306Z,21.90
2023-03-04T09:30:41.716Z,21.90
2023-03-04T09:33:11.557Z,21.90
2023-03-04T09:35:39.766Z,21.90
2023-03-04T09:38:08.446Z,21.80
2023-03-04T09:40:42.215Z,21.80
2023-03-04T09:43:21.901Z,21.80
2023-03-04T09:45:52.954Z,21.80
2023-03-04T09:48:26.121Z,22.00
2023-03-04T09:51:06.755Z,22.00
2023-03-04T09:53:42.035Z,22.00
2023-03-04T09:56:12.741Z,22.00
2023-03-04T09:58:49.818Z,22.10
2023-03-04T10:01:23.436Z,22.20
2023-03-04T10:03:55.997Z,22.20
2023-03-04T10:06:24.783Z,22.20
2023-03-04T10:08:57.452Z,22.20
2023-03-04T10:11:28.873Z,22.20
2023-03-04T10:14:13.108Z,22.20
2023-03-04T10:16:45.713Z,22.20
2023-03-04T10:19:35.717Z,22.20
2023-03-04T10:22:13.727Z,22.20
2023-03-04T10:24:41.897Z,22.10
2023-03-04T10:27:16.907Z,22.10
2023-03-04T10:29:47.436Z,22.10
2023-03-04T10:32:19.309Z,22.20
2023-03-04T10:34:49.123Z,22.20
2023-03-04T10:37:17.226Z,22.20
2023-03-04T10:39:47.337Z,22.10
2023-03-04T10:42:29.946Z,22.10
2023-03-04T10:44:59.805Z,22.10
2023-03-04T10:47:30.144Z,22.10
2023-03-04T10:50:01.396Z,22.00
2023-03-04T10:52:31.375Z,22.00
2023-03-04T10:55:00.567Z,21.90
2023-03-04T10:57:36.259Z,22.00
2023-03-04T11:00:21.473Z,22.00
2023-03-04T11:02:50.617Z,22.10
2023-03-04T11:05:21.817Z,22.30
2023-03-04T11:07:57.266Z,22.40
2023-03-04T11:10:39.740Z,22.50
2023-03-04T11:13:16.322Z,22.40
2023-03-04T11:15:53.172Z,22.30
2023-03-04T11:18:27.180Z,22.20
2023-03-04T11:20:57.579Z,22.10
2023-03-04T11:23:35.596Z,22.10
2023-03-04T11:26:07.525Z,22.10
2023-03-04T11:28:43.292Z,21.60
2023-03-04T11:31:16.741Z,21.90
2023-03-04T11:33:51.408Z,22.00
2023-03-04T11:36:32.646Z,22.00
2023-03-04T11:39:02.930Z,21.80
2023-03-04T11:41:35.705Z,21.70
2023-03-04T11:44:08.859Z,22.10
2023-03-04T11:47:04.346Z,22.00
2023-03-04T11:49:55.042Z,22.00
2023-03-04T11:52:42.167Z,21.80
2023-03-04T11:55:26.568Z,21.70
2023-03-04T11:58:03.419Z,21.40
2023-03-04T12:00:39.993Z,21.20
2023-03-04T12:03:42.073Z,21.60
2023-03-04T12:06:15.289Z,22.10
2023-03-04T12:09:16.086Z,21.90
2023-03-04T12:11:50.420Z,21.50
2023-03-04T12:14:26.789Z,22.20
2023-03-04T12:17:30.576Z,21.70
2023-03-04T12:20:22.880Z,21.40
2023-03-04T12:22:59.932Z,21.50
2023-03-04T12:25:45.562Z,21.40
2023-03-04T12:28:52.402Z,21.30
2023-03-04T12:31:39.447Z,22.30
2023-03-04T12:34:39.284Z,22.30
2023-03-04T12:37:39.406Z,21.80
2023-03-04T12:40:29.047Z,21.70
2023-03-04T12:43:09.957Z,21.30
2023-03-04T12:45:45.949Z,21.60
2023-03-04T12:53:31.225Z,22.10
2023-03-04T12:58:32.146Z,22.60
2023-03-04T13:01:06.669Z,23.00
2023-03-04T13:03:45.345Z,22.90
2023-03-04T13:06:29.610Z,23.20
2023-03-04T13:09:04.708Z,23.30
2023-03-04T13:11:50.999Z,23.30
2023-03-04T13:14:29.603Z,23.30
2023-03-04T13:17:01.738Z,23.30
2023-03-04T13:22:46.310Z,22.60
2023-03-04T13:31:20.653Z,22.50
2023-03-04T13:33:58.690Z,22.30
2023-03-04T13:36:55.944Z,22.90
2023-03-04T13:39:29.931Z,22.70
2023-03-04T13:45:01.457Z,21.90
2023-03-04T13:47:56.580Z,22.30
2023-03-04T13:50:37.398Z,22.10
2023-03-04T13:53:24.108Z,22.20
2023-03-04T13:56:11.428Z,22.10
2023-03-04T14:01:22.169Z,22.90
2023-03-04T14:03:51.726Z,22.20
2023-03-04T14:06:22.340Z,21.90
2023-03-04T14:08:51.803Z,22.10
2023-03-04T14:11:28.185Z,22.00
2023-03-04T14:13:58.546Z,21.70
2023-03-04T14:16:29.952Z,22.40
2023-03-04T14:19:02.336Z,22.20
2023-03-04T14:24:05.774Z,22.60
2023-03-04T14:31:37.146Z,22.30
2023-03-04T14:34:06.918Z,23.10
2023-03-04T14:36:37.887Z,23.00
2023-03-04T14:39:08.524Z,22.40
2023-03-04T14:41:38.882Z,21.70
2023-03-04T14:44:13.602Z,22.30
2023-03-04T14:46:56.919Z,22.00
2023-03-04T14:49:36.159Z,22.80
2023-03-04T14:54:36.274Z,22.10
2023-03-04T14:57:23.954Z,22.20
2023-03-04T15:02:31.536Z,21.50
2023-03-04T15:05:03.391Z,21.80
2023-03-04T15:07:35.021Z,21.80
2023-03-04T15:10:08.604Z,21.80
2023-03-04T15:12:38.620Z,21.30
2023-03-04T15:15:26.854Z,21.50
2023-03-04T15:18:01.354Z,22.00
2023-03-04T15:20:32.107Z,22.00
2023-03-04T15:23:07.298Z,22.10
2023-03-04T15:25:36.631Z,22.40
2023-03-04T15:28:07.734Z,22.30
2023-03-04T15:35:34.846Z,22.10
2023-03-04T15:43:02.547Z,21.70
2023-03-04T15:45:36.024Z,21.90
2023-03-04T15:48:07.964Z,22.00
2023-03-04T15:50:39.706Z,23.00
2023-03-04T15:53:10.118Z,22.00
2023-03-04T15:58:07.951Z,22.20
2023-03-04T16:00:37.246Z,21.60
2023-03-04T16:03:05.672Z,22.40
2023-03-04T16:05:39.114Z,21.60
2023-03-04T16:20:31.467Z,21.50
2023-03-04T16:23:01.391Z,21.30
2023-03-04T16:25:30.333Z,21.30
2023-03-04T16:28:02.699Z,21.00
2023-03-04T16:32:59.448Z,21.40
2023-03-04T16:35:29.174Z,21.30
2023-03-04T16:37:58.648Z,21.00
2023-03-04T16:40:30.347Z,21.10
2023-03-04T16:42:58.851Z,21.30
2023-03-04T16:45:30.269Z,20.80
2023-03-04T16:47:58.481Z,20.60
2023-03-04T16:50:30.051Z,20.90
2023-03-04T16:52:58.299Z,20.90
2023-03-04T16:55:31.496Z,20.90
2023-03-04T16:57:59.676Z,20.50
2023-03-04T17:00:30.020Z,20.90
2023-03-04T17:02:59.568Z,21.30
2023-03-04T17:05:29.957Z,20.70
2023-03-04T17:07:58.613Z,21.00
2023-03-04T17:10:28.358Z,21.50
2023-03-04T17:12:56.567Z,20.80
2023-03-04T17:17:54.329Z,20.70
2023-03-04T17:20:22.895Z,20.60
2023-03-04T17:22:51.177Z,20.30
2023-03-04T17:27:49.253Z,20.80
2023-03-04T17:30:17.904Z,21.00
2023-03-04T17:40:14.225Z,20.90
2023-03-04T17:42:43.433Z,20.60
2023-03-04T17:45:13.107Z,21.10
2023-03-04T17:47:42.134Z,20.90
2023-03-04T17:50:11.647Z,20.40
2023-03-04T17:52:39.797Z,20.70
2023-03-04T17:55:08.732Z,20.60
2023-03-04T17:57:38.333Z,20.90
2023-03-04T18:00:07.795Z,21.00
2023-03-04T18:02:37.335Z,20.70
2023-03-04T18:05:07.511Z,20.60
2023-03-04T18:07:35.977Z,20.80
2023-03-04T18:10:05.069Z,20.90
2023-03-04T18:12:33.333Z,20.40
2023-03-04T18:15:01.439Z,20.60
2023-03-04T18:17:29.591Z,20.90
2023-03-04T18:19:59.067Z,20.80
2023-03-04T18:22:27.245Z,20.50
2023-03-04T18:24:55.343Z,20.50
2023-03-04T18:27:23.497Z,20.50
2023-03-04T18:29:51.625Z,20.50
2023-03-04T18:32:19.798Z,20.40
2023-03-04T18:34:47.967Z,21.40
2023-03-04T18:37:17.485Z,20.70
2023-03-04T18:39:45.603Z,20.80
2023-03-04T18:42:13.755Z,20.90
2023-03-04T18:44:42.068Z,21.20
2023-03-04T18:47:11.775Z,20.90
2023-03-04T18:49:42.111Z,20.50
2023-03-04T18:52:10.270Z,20.70
2023-03-04T18:54:39.806Z,20.60
2023-03-04T18:57:10.655Z,20.90
2023-03-04T18:59:42.768Z,20.70
2023-03-04T19:02:18.248Z,20.40
2023-03-04T19:04:46.795Z,20.30
2023-03-04T19:07:15.019Z,20.80
2023-03-04T19:09:44.616Z,20.60
2023-03-04T19:12:13.258Z,20.00
2023-03-04T19:14:41.541Z,19.90
2023-03-04T19:17:09.774Z,19.80
2023-03-04T19:19:37.985Z,19.90
2023-03-04T19:22:06.948Z,20.00
2023-03-04T19:24:35.334Z,20.00
2023-03-04T19:27:05.478Z,20.00
2023-03-04T19:29:33.761Z,20.00
2023-03-04T19:32:01.913Z,20.10
2023-03-04T19:34:30.455Z,20.20
2023-03-04T19:36:58.561Z,20.30
2023-03-04T19:39:28.179Z,20.30
2023-03-04T19:41:56.308Z,20.00
2023-03-04T19:44:25.842Z,20.30
2023-03-04T19:46:54.108Z,20.30
2023-03-04T19:49:22.250Z,20.40
2023-03-04T19:51:50.428Z,20.40
2023-03-04T19:54:18.631Z,20.30
2023-03-04T19:56:47.077Z,20.30
2023-03-04T19:59:15.260Z,20.70
2023-03-04T20:01:45.594Z,21.70
2023-03-04T20:04:16.127Z,20.90
2023-03-04T20:06:47.000Z,21.50
2023-03-04T20:09:17.306Z,22.10
2023-03-04T20:11:57.068Z,21.60
2023-03-04T20:16:59.179Z,20.50
2023-03-04T20:19:27.340Z,20.00
2023-03-04T20:21:56.416Z,20.40
2023-03-04T20:24:24.717Z,19.60
2023-03-04T20:26:53.428Z,20.30
2023-03-04T20:29:21.574Z,20.00
2023-03-04T20:31:49.703Z,20.70
2023-03-04T20:34:19.272Z,20.10
2023-03-04T20:36:47.390Z,20.00
2023-03-04T20:41:57.040Z,20.00
2023-03-04T20:49:26.099Z,20.20
2023-03-04T20:51:56.056Z,20.80
2023-03-04T20:54:24.019Z,19.80
2023-03-04T20:56:52.310Z,20.60
2023-03-04T21:01:49.675Z,20.20
2023-03-04T21:04:18.739Z,19.70
2023-03-04T21:06:48.496Z,19.50
2023-03-04T21:09:18.096Z,19.70
2023-03-04T21:11:46.513Z,19.60
2023-03-04T21:14:19.357Z,20.20
2023-03-04T21:16:47.910Z,19.80
2023-03-04T21:19:17.600Z,19.90
2023-03-04T21:21:47.942Z,19.70
2023-03-04T21:24:17.663Z,19.50
2023-03-04T21:26:47.724Z,19.50
2023-03-04T21:29:17.155Z,19.60
2023-03-04T21:31:47.818Z,19.60
2023-03-04T21:34:18.306Z,19.40
2023-03-04T21:36:49.705Z,19.40
2023-03-04T21:39:20.135Z,19.50
2023-03-04T21:41:48.617Z,19.30
2023-03-04T21:44:27.972Z,19.30
2023-03-04T21:46:57.141Z,19.90
2023-03-04T21:49:25.424Z,19.60
2023-03-04T21:51:55.008Z,19.20
2023-03-04T21:54:23.551Z,19.20
2023-03-04T21:56:51.720Z,19.20
2023-03-04T21:59:19.836Z,19.60
2023-03-04T22:01:48.084Z,19.50
2023-03-04T22:04:16.232Z,19.20
2023-03-04T22:06:44.361Z,19.10
2023-03-04T22:09:14.534Z,19.40
2023-03-04T22:11:42.756Z,19.10
2023-03-04T22:14:11.833Z,19.10
2023-03-04T22:16:54.082Z,19.00
2023-03-04T22:19:23.245Z,18.90
2023-03-04T22:21:51.600Z,19.00
2023-03-04T22:26:50.207Z,19.20
2023-03-04T22:29:18.340Z,18.60
2023-03-04T22:31:46.689Z,18.70
2023-03-04T22:34:16.830Z,18.80
2023-03-04T22:36:46.955Z,18.70
2023-03-04T22:39:19.322Z,18.40
2023-03-04T22:41:49.049Z,18.60
2023-03-04T22:44:17.254Z,18.70
2023-03-04T22:46:45.427Z,18.80
2023-03-04T22:49:15.226Z,18.70
2023-03-04T22:51:44.949Z,18.70
2023-03-04T22:54:14.608Z,18.70
2023-03-04T22:56:42.808Z,18.60
2023-03-04T22:59:12.776Z,18.60
2023-03-04T23:01:40.857Z,18.70
2023-03-04T23:04:08.977Z,18.60
2023-03-04T23:06:37.835Z,18.60
2023-03-04T23:09:06.686Z,18.60
2023-03-04T23:11:36.591Z,18.60
2023-03-04T23:14:07.254Z,18.60
2023-03-04T23:16:39.480Z,18.50
2023-03-04T23:19:08.298Z,18.50
2023-03-04T23:21:37.814Z,18.50
2023-03-04T23:24:08.277Z,18.50
2023-03-04T23:26:38.830Z,18.50
2023-03-04T23:29:08.940Z,18.50
2023-03-04T23:31:38.596Z,18.50
2023-03-04T23:34:07.099Z,18.70
2023-03-04T23:36:37.795Z,18.20
2023-03-04T23:39:06.776Z,18.60
2023-03-04T23:41:35.418Z,18.30
2023-03-04T23:44:04.383Z,18.60
2023-03-04T23:46:32.579Z,18.30
2023-03-04T23:49:02.152Z,19.40
2023-03-04T23:51:31.436Z,18.50
2023-03-04T23:54:00.529Z,18.30
2023-03-04T23:56:30.961Z,18.20
2023-03-04T23:59:00.546Z,18.40
